Date,TemperatureHighF,TemperatureAvgF,TemperatureLowF,DewpointHighF,DewpointAvgF,DewpointLowF,HumidityHigh,HumidityAvg,HumidityLow,PressureMaxIn,PressureMinIn,WindSpeedMaxMPH,WindSpeedAvgMPH,GustSpeedMaxMPH,PrecipitationSumIn
2013-6-1,86,78,67,74,70,67,100,78,57,30.00,29.87,1,0,10,0.00
2013-6-2,85,77,68,73,70,-100,100,82,64,29.91,29.75,2,0,7,0.00
2013-6-3,76,72,69,74,70,51,100,94,51,29.86,29.76,6,1,14,0.95
2013-6-4,75,66,55,54,45,37,75,49,25,30.09,29.86,7,3,19,0.01
2013-6-5,70,64,56,54,47,39,80,55,39,30.21,30.10,3,1,19,0.00
2013-6-6,70,63,55,64,59,52,100,88,52,30.15,30.02,6,1,14,0.03
2013-6-7,65,63,60,65,63,60,100,100,100,30.02,29.63,8,4,21,1.79
2013-6-8,74,68,61,71,65,61,100,92,74,30.01,29.56,9,2,21,2.04
2013-6-9,80,71,61,69,62,56,100,76,46,30.15,30.01,6,1,19,0.39
2013-6-10,71,66,64,71,66,64,100,100,95,30.15,29.83,7,2,18,0.13
2013-6-11,79,72,65,78,68,57,100,88,63,29.84,29.56,8,2,19,1.15
2013-6-12,75,69,62,61,55,51,95,62,46,29.83,29.67,10,3,25,0.32
2013-6-13,65,61,58,65,61,58,100,99,90,29.82,29.48,9,3,27,1.58
2013-6-14,69,61,55,64,58,54,100,91,66,29.85,29.51,7,2,27,1.99
2013-6-15,80,70,57,64,55,47,100,65,34,29.98,29.85,8,2,21,0.19
2013-6-16,81,71,58,67,61,55,99,73,46,29.97,29.73,3,0,17,0.00
2013-6-17,86,76,66,71,67,61,100,76,48,29.89,29.80,3,1,18,0.37
2013-6-18,77,70,64,73,69,64,100,98,86,29.88,29.79,6,1,18,0.57
2013-6-19,75,68,60,67,54,39,100,66,28,30.16,29.86,6,2,14,0.17
2013-6-20,78,68,57,63,59,57,100,78,50,30.24,30.15,2,1,14,0.00
2013-6-22,82,77,70,66,62,58,68,60,51,30.24,30.13,3,1,7,0.00
2013-6-23,85,76,63,76,69,61,100,80,59,30.16,30.05,2,0,10,0.00
2013-6-24,93,82,75,78,72,65,100,75,49,30.06,29.91,5,1,22,0.00
2013-6-25,92,82,70,75,70,66,100,69,47,29.98,29.77,3,1,22,0.00
2013-6-26,85,81,76,72,70,67,86,69,59,29.83,29.74,5,1,12,0.00
2013-6-27,79,75,73,78,75,73,100,99,91,29.81,29.57,6,2,17,0.55
2013-6-28,83,78,75,78,76,73,100,92,73,29.55,29.44,2,0,7,0.55
2013-6-29,83,77,71,76,73,68,100,88,62,29.68,29.46,2,0,7,0.01
2013-6-30,81,76,71,80,76,71,100,99,92,29.91,29.68,5,1,10,0.00